Jacobabad Weather



Jacobabad's Current Weather

Temprature 11.88o clear sky

clear sky

Rain: 0 %

Min Temprature11.88o
Max Temprature11.88o
Humidity35
Wind Speed2.37 m/h
Sun Rise07:18:50
Sun Set17:54:01
Current Time: 18-Jan-2021 05:50:36
Lat/Lon: 28.281, 68.4388




Jacobabad's Geo Location



Jacobabad's Weather Forecast

Time Overall Temp Min Temp Max Temp Humidity Wind Speed Rain
18-Jan-2021 (Mon)
08:00:00 clear sky 12.430 12.270 12.430 34 2.21 m/h 0 %
11:00:00 clear sky 20.500 20.500 22.680 21 4.48 m/h 0 %
14:00:00 clear sky 24.630 24.630 25.450 16 3.71 m/h 0 %
17:00:00 clear sky 23.040 23.040 23.120 17 3.78 m/h 0 %
20:00:00 clear sky 16.830 16.830 16.830 26 2.65 m/h 0 %
23:00:00 clear sky 14.870 14.870 14.870 30 2.61 m/h 0 %
19-Jan-2021 (Tue)
02:00:00 clear sky 13.080 13.080 13.080 36 2.78 m/h 0 %
05:00:00 clear sky 11.270 11.270 11.270 41 1.48 m/h 0 %
08:00:00 clear sky 11.760 11.760 11.760 40 1.17 m/h 0 %
11:00:00 clear sky 20.570 20.570 20.570 22 1.57 m/h 0 %
14:00:00 clear sky 24.810 24.810 24.810 16 1.07 m/h 0 %
17:00:00 clear sky 23.870 23.870 23.870 18 1.11 m/h 0 %
20:00:00 clear sky 16.660 16.660 16.660 28 2.53 m/h 0 %
23:00:00 clear sky 15.290 15.290 15.290 31 1.65 m/h 0 %
20-Jan-2021 (Wed)
02:00:00 clear sky 14.330 14.330 14.330 32 0.98 m/h 0 %
05:00:00 clear sky 13.970 13.970 13.970 33 1.23 m/h 0 %
08:00:00 clear sky 15.010 15.010 15.010 31 1.54 m/h 0 %
11:00:00 clear sky 23.820 23.820 23.820 18 2.11 m/h 0 %
14:00:00 clear sky 27.550 27.550 27.550 15 1.6 m/h 0 %
17:00:00 clear sky 26.390 26.390 26.390 16 1.2 m/h 0 %
20:00:00 clear sky 18.750 18.750 18.750 26 1.98 m/h 0 %
23:00:00 clear sky 16.730 16.730 16.730 29 0.61 m/h 0 %
21-Jan-2021 (Thu)
02:00:00 clear sky 15.620 15.620 15.620 32 0.26 m/h 0 %
05:00:00 clear sky 14.800 14.800 14.800 33 1.07 m/h 0 %
08:00:00 clear sky 15.480 15.480 15.480 32 1.52 m/h 0 %
11:00:00 clear sky 24.970 24.970 24.970 18 1.91 m/h 0 %
14:00:00 clear sky 29.200 29.200 29.200 14 3.44 m/h 0 %
17:00:00 clear sky 28.300 28.300 28.300 15 1.63 m/h 0 %
20:00:00 clear sky 19.700 19.700 19.700 25 1.93 m/h 0 %
23:00:00 clear sky 18.680 18.680 18.680 26 1.57 m/h 0 %
22-Jan-2021 (Fri)
02:00:00 clear sky 16.520 16.520 16.520 30 1.76 m/h 0 %
05:00:00 clear sky 15.330 15.330 15.330 33 1.5 m/h 0 %
08:00:00 clear sky 15.480 15.480 15.480 33 2.37 m/h 0 %
11:00:00 clear sky 24.260 24.260 24.260 20 2.86 m/h 0 %
14:00:00 clear sky 28.570 28.570 28.570 15 4.09 m/h 0 %
17:00:00 clear sky 27.010 27.010 27.010 16 4.44 m/h 0 %
20:00:00 clear sky 20.170 20.170 20.170 22 4.95 m/h 0 %
23:00:00 clear sky 17.050 17.050 17.050 24 5.15 m/h 0 %
23-Jan-2021 (Sat)
02:00:00 clear sky 14.320 14.320 14.320 28 5.18 m/h 0 %
05:00:00 clear sky 12.960 12.960 12.960 30 6.61 m/h 0 %

Famous Cities (60)